sensor_id;sensor_type;location;lat;lon;timestamp;pressure;altitude;pressure_sealevel;temperature;humidity
64758;BME280;51193;45.588;5.376;2022-08-19T00:01:50;96077.97;;;18.81;69.01
64758;BME280;51193;45.588;5.376;2022-08-19T00:04:18;96082.28;;;18.82;68.81
64758;BME280;51193;45.588;5.376;2022-08-19T00:06:47;96078.47;;;18.86;68.42
64758;BME280;51193;45.588;5.376;2022-08-19T00:09:15;96079.03;;;18.92;68.36
64758;BME280;51193;45.588;5.376;2022-08-19T00:11:42;96061.00;;;18.97;68.33
64758;BME280;51193;45.588;5.376;2022-08-19T00:14:10;96078.63;;;18.98;69.11
64758;BME280;51193;45.588;5.376;2022-08-19T00:16:40;96074.16;;;18.98;68.69
64758;BME280;51193;45.588;5.376;2022-08-19T00:19:07;96072.06;;;19.03;68.77
64758;BME280;51193;45.588;5.376;2022-08-19T00:21:32;96076.91;;;18.97;68.65
64758;BME280;51193;45.588;5.376;2022-08-19T00:24:00;96076.28;;;18.93;68.80
64758;BME280;51193;45.588;5.376;2022-08-19T00:26:27;96081.88;;;18.88;68.92
64758;BME280;51193;45.588;5.376;2022-08-19T00:28:52;96086.44;;;18.86;69.11
64758;BME280;51193;45.588;5.376;2022-08-19T00:31:18;96087.19;;;18.88;69.12
64758;BME280;51193;45.588;5.376;2022-08-19T00:33:47;96085.06;;;18.81;69.01
64758;BME280;51193;45.588;5.376;2022-08-19T00:36:16;96089.56;;;18.66;69.58
64758;BME280;51193;45.588;5.376;2022-08-19T00:38:41;96086.28;;;18.62;69.68
64758;BME280;51193;45.588;5.376;2022-08-19T00:41:18;96084.47;;;18.63;69.62
64758;BME280;51193;45.588;5.376;2022-08-19T00:44:19;96079.59;;;18.69;69.35
64758;BME280;51193;45.588;5.376;2022-08-19T00:46:43;96079.09;;;18.77;69.83
64758;BME280;51193;45.588;5.376;2022-08-19T00:49:15;96072.00;;;18.78;69.87
64758;BME280;51193;45.588;5.376;2022-08-19T00:51:45;96066.91;;;18.75;70.03
64758;BME280;51193;45.588;5.376;2022-08-19T00:54:11;96068.59;;;18.63;70.36
64758;BME280;51193;45.588;5.376;2022-08-19T00:56:37;96073.75;;;18.52;70.69
64758;BME280;51193;45.588;5.376;2022-08-19T00:59:04;96071.91;;;18.39;70.83
64758;BME280;51193;45.588;5.376;2022-08-19T01:01:37;96064.84;;;18.40;71.43
64758;BME280;51193;45.588;5.376;2022-08-19T01:04:03;96067.50;;;18.40;71.33
64758;BME280;51193;45.588;5.376;2022-08-19T01:06:32;96066.44;;;18.42;71.26
64758;BME280;51193;45.588;5.376;2022-08-19T01:08:59;96061.66;;;18.47;71.58
64758;BME280;51193;45.588;5.376;2022-08-19T01:11:27;96069.59;;;18.47;71.65
64758;BME280;51193;45.588;5.376;2022-08-19T01:13:54;96066.94;;;18.47;71.52
64758;BME280;51193;45.588;5.376;2022-08-19T01:16:22;96072.38;;;18.46;72.02
64758;BME280;51193;45.588;5.376;2022-08-19T01:18:49;96072.66;;;18.41;72.19
64758;BME280;51193;45.588;5.376;2022-08-19T01:23:47;96063.38;;;18.48;71.76
64758;BME280;51193;45.588;5.376;2022-08-19T01:26:16;96056.06;;;18.52;71.81
64758;BME280;51193;45.588;5.376;2022-08-19T01:28:44;96057.22;;;18.48;71.60
64758;BME280;51193;45.588;5.376;2022-08-19T01:31:16;96070.88;;;18.42;72.12
64758;BME280;51193;45.588;5.376;2022-08-19T01:33:43;96069.56;;;18.35;71.13
64758;BME280;51193;45.588;5.376;2022-08-19T01:36:12;96068.81;;;18.33;71.85
64758;BME280;51193;45.588;5.376;2022-08-19T01:38:40;96064.69;;;18.28;72.40
64758;BME280;51193;45.588;5.376;2022-08-19T01:41:08;96067.09;;;18.19;72.72
64758;BME280;51193;45.588;5.376;2022-08-19T01:43:34;96056.31;;;18.22;72.54
64758;BME280;51193;45.588;5.376;2022-08-19T01:46:00;96060.63;;;18.23;72.69
64758;BME280;51193;45.588;5.376;2022-08-19T01:48:26;96058.88;;;18.23;72.50
64758;BME280;51193;45.588;5.376;2022-08-19T01:50:54;96063.09;;;18.26;72.39
64758;BME280;51193;45.588;5.376;2022-08-19T01:53:19;96067.34;;;18.28;72.40
64758;BME280;51193;45.588;5.376;2022-08-19T01:55:45;96053.25;;;18.28;72.28
64758;BME280;51193;45.588;5.376;2022-08-19T01:58:15;96060.84;;;18.20;72.46
64758;BME280;51193;45.588;5.376;2022-08-19T02:00:42;96065.59;;;18.15;72.87
64758;BME280;51193;45.588;5.376;2022-08-19T02:03:08;96061.91;;;18.17;72.76
64758;BME280;51193;45.588;5.376;2022-08-19T02:05:34;96062.75;;;18.18;72.78
64758;BME280;51193;45.588;5.376;2022-08-19T02:07:59;96074.41;;;18.15;72.45
64758;BME280;51193;45.588;5.376;2022-08-19T02:10:25;96078.19;;;18.11;72.81
64758;BME280;51193;45.588;5.376;2022-08-19T02:12:50;96075.81;;;18.06;72.73
64758;BME280;51193;45.588;5.376;2022-08-19T02:15:18;96074.53;;;17.99;73.02
64758;BME280;51193;45.588;5.376;2022-08-19T02:17:45;96078.03;;;18.00;72.97
64758;BME280;51193;45.588;5.376;2022-08-19T02:20:11;96078.69;;;18.03;72.86
64758;BME280;51193;45.588;5.376;2022-08-19T02:22:38;96083.75;;;18.06;72.95
64758;BME280;51193;45.588;5.376;2022-08-19T02:25:07;96085.81;;;18.16;72.76
64758;BME280;51193;45.588;5.376;2022-08-19T02:27:32;96090.91;;;18.19;72.70
64758;BME280;51193;45.588;5.376;2022-08-19T02:29:59;96089.00;;;18.21;72.81
64758;BME280;51193;45.588;5.376;2022-08-19T02:32:25;96086.00;;;18.13;72.66
64758;BME280;51193;45.588;5.376;2022-08-19T02:34:50;96085.66;;;18.04;73.19
64758;BME280;51193;45.588;5.376;2022-08-19T02:37:15;96088.03;;;18.09;72.95
64758;BME280;51193;45.588;5.376;2022-08-19T02:40:00;96095.66;;;18.14;72.85
64758;BME280;51193;45.588;5.376;2022-08-19T02:42:26;96100.63;;;18.18;72.83
64758;BME280;51193;45.588;5.376;2022-08-19T02:44:51;96099.81;;;18.18;72.75
64758;BME280;51193;45.588;5.376;2022-08-19T02:47:18;96095.56;;;18.15;72.86
64758;BME280;51193;45.588;5.376;2022-08-19T02:49:44;96100.84;;;18.15;72.65
64758;BME280;51193;45.588;5.376;2022-08-19T02:52:10;96099.63;;;18.06;73.20
64758;BME280;51193;45.588;5.376;2022-08-19T02:54:37;96102.00;;;18.11;72.98
64758;BME280;51193;45.588;5.376;2022-08-19T02:57:04;96094.91;;;18.12;73.08
64758;BME280;51193;45.588;5.376;2022-08-19T02:59:30;96105.50;;;18.12;73.22
64758;BME280;51193;45.588;5.376;2022-08-19T03:01:56;96109.72;;;18.14;72.85
64758;BME280;51193;45.588;5.376;2022-08-19T03:04:22;96115.03;;;18.14;72.77
64758;BME280;51193;45.588;5.376;2022-08-19T03:06:48;96104.88;;;18.21;72.71
64758;BME280;51193;45.588;5.376;2022-08-19T03:09:14;96107.44;;;18.22;72.90
64758;BME280;51193;45.588;5.376;2022-08-19T03:11:40;96108.41;;;18.21;72.83
64758;BME280;51193;45.588;5.376;2022-08-19T03:14:07;96105.75;;;18.21;72.64
64758;BME280;51193;45.588;5.376;2022-08-19T03:16:45;96105.75;;;18.21;72.87
64758;BME280;51193;45.588;5.376;2022-08-19T03:19:11;96105.19;;;18.16;72.95
64758;BME280;51193;45.588;5.376;2022-08-19T03:21:36;96111.53;;;18.14;73.26
64758;BME280;51193;45.588;5.376;2022-08-19T03:24:05;96116.81;;;18.14;73.25
64758;BME280;51193;45.588;5.376;2022-08-19T03:26:31;96110.56;;;18.15;73.06
64758;BME280;51193;45.588;5.376;2022-08-19T03:28:57;96115.22;;;18.11;73.24
64758;BME280;51193;45.588;5.376;2022-08-19T03:31:26;96114.66;;;18.06;73.30
64758;BME280;51193;45.588;5.376;2022-08-19T03:33:52;96113.91;;;18.04;73.13
64758;BME280;51193;45.588;5.376;2022-08-19T03:36:22;96117.31;;;18.06;73.27
64758;BME280;51193;45.588;5.376;2022-08-19T03:38:52;96121.66;;;18.07;73.40
64758;BME280;51193;45.588;5.376;2022-08-19T03:41:23;96121.38;;;18.12;73.28
64758;BME280;51193;45.588;5.376;2022-08-19T03:43:49;96119.47;;;18.14;73.03
64758;BME280;51193;45.588;5.376;2022-08-19T03:46:17;96121.81;;;18.18;72.97
64758;BME280;51193;45.588;5.376;2022-08-19T03:48:46;96130.59;;;18.19;72.78
64758;BME280;51193;45.588;5.376;2022-08-19T03:51:17;96126.25;;;18.18;73.25
64758;BME280;51193;45.588;5.376;2022-08-19T03:53:44;96133.06;;;18.22;72.82
64758;BME280;51193;45.588;5.376;2022-08-19T03:56:09;96127.75;;;18.22;72.77
64758;BME280;51193;45.588;5.376;2022-08-19T03:58:35;96134.56;;;18.26;72.73
64758;BME280;51193;45.588;5.376;2022-08-19T04:01:10;96144.31;;;18.25;72.65
64758;BME280;51193;45.588;5.376;2022-08-19T04:03:36;96146.06;;;18.25;72.92
64758;BME280;51193;45.588;5.376;2022-08-19T04:06:20;96144.47;;;18.22;72.75
64758;BME280;51193;45.588;5.376;2022-08-19T04:08:47;96154.00;;;18.25;72.80
64758;BME280;51193;45.588;5.376;2022-08-19T04:11:16;96160.06;;;18.27;72.75
64758;BME280;51193;45.588;5.376;2022-08-19T04:13:42;96161.03;;;18.26;72.78
64758;BME280;51193;45.588;5.376;2022-08-19T04:16:11;96169.13;;;18.23;72.84
64758;BME280;51193;45.588;5.376;2022-08-19T04:18:37;96170.75;;;18.25;72.65
64758;BME280;51193;45.588;5.376;2022-08-19T04:21:05;96173.50;;;18.24;73.08
64758;BME280;51193;45.588;5.376;2022-08-19T04:23:32;96161.03;;;18.26;72.73
64758;BME280;51193;45.588;5.376;2022-08-19T04:25:58;96165.34;;;18.27;72.70
64758;BME280;51193;45.588;5.376;2022-08-19T04:28:24;96168.00;;;18.27;72.60
64758;BME280;51193;45.588;5.376;2022-08-19T04:30:52;96165.56;;;18.24;72.69
64758;BME280;51193;45.588;5.376;2022-08-19T04:33:20;96169.34;;;18.20;72.53
64758;BME280;51193;45.588;5.376;2022-08-19T04:35:48;96176.53;;;18.18;72.87
64758;BME280;51193;45.588;5.376;2022-08-19T04:38:16;96172.84;;;18.20;72.56
64758;BME280;51193;45.588;5.376;2022-08-19T04:40:44;96184.28;;;18.21;72.76
64758;BME280;51193;45.588;5.376;2022-08-19T04:43:28;96189.56;;;18.21;72.66
64758;BME280;51193;45.588;5.376;2022-08-19T04:45:54;96190.69;;;18.17;72.83
64758;BME280;51193;45.588;5.376;2022-08-19T04:48:21;96190.91;;;18.14;73.06
64758;BME280;51193;45.588;5.376;2022-08-19T04:50:56;96192.59;;;18.15;72.93
64758;BME280;51193;45.588;5.376;2022-08-19T04:53:30;96193.75;;;18.10;72.84
64758;BME280;51193;45.588;5.376;2022-08-19T04:55:57;96193.66;;;18.12;73.04
64758;BME280;51193;45.588;5.376;2022-08-19T04:58:25;96194.63;;;18.11;73.02
64758;BME280;51193;45.588;5.376;2022-08-19T05:00:51;96199.03;;;18.10;72.99
64758;BME280;51193;45.588;5.376;2022-08-19T05:03:17;96190.06;;;18.13;72.89
64758;BME280;51193;45.588;5.376;2022-08-19T05:05:44;96197.88;;;18.15;73.01
64758;BME280;51193;45.588;5.376;2022-08-19T05:08:12;96201.88;;;18.07;73.22
64758;BME280;51193;45.588;5.376;2022-08-19T05:10:38;96199.25;;;18.07;73.31
64758;BME280;51193;45.588;5.376;2022-08-19T05:13:04;96206.03;;;18.12;73.02
64758;BME280;51193;45.588;5.376;2022-08-19T05:15:30;96206.22;;;18.08;73.60
64758;BME280;51193;45.588;5.376;2022-08-19T05:17:56;96205.66;;;18.03;73.46
64758;BME280;51193;45.588;5.376;2022-08-19T05:20:40;96218.06;;;18.03;73.49
64758;BME280;51193;45.588;5.376;2022-08-19T05:23:24;96220.97;;;17.98;73.33
64758;BME280;51193;45.588;5.376;2022-08-19T05:25:52;96226.09;;;18.01;73.51
64758;BME280;51193;45.588;5.376;2022-08-19T05:28:19;96231.16;;;18.04;73.70
64758;BME280;51193;45.588;5.376;2022-08-19T05:30:45;96227.88;;;18.01;73.45
64758;BME280;51193;45.588;5.376;2022-08-19T05:33:11;96219.94;;;18.01;73.78
64758;BME280;51193;45.588;5.376;2022-08-19T05:35:38;96226.94;;;18.02;73.65
64758;BME280;51193;45.588;5.376;2022-08-19T05:38:05;96228.63;;;18.03;73.88
64758;BME280;51193;45.588;5.376;2022-08-19T05:40:34;96234.09;;;18.00;73.89
64758;BME280;51193;45.588;5.376;2022-08-19T05:43:02;96232.22;;;18.02;73.96
64758;BME280;51193;45.588;5.376;2022-08-19T05:45:28;96235.53;;;18.05;73.93
64758;BME280;51193;45.588;5.376;2022-08-19T05:47:53;96240.63;;;18.08;73.59
64758;BME280;51193;45.588;5.376;2022-08-19T05:50:19;96244.13;;;18.09;73.31
64758;BME280;51193;45.588;5.376;2022-08-19T05:52:45;96241.88;;;18.03;73.84
64758;BME280;51193;45.588;5.376;2022-08-19T05:55:10;96245.34;;;18.03;73.96
64758;BME280;51193;45.588;5.376;2022-08-19T05:57:36;96240.91;;;18.04;73.88
64758;BME280;51193;45.588;5.376;2022-08-19T06:00:04;96247.91;;;18.05;73.92
64758;BME280;51193;45.588;5.376;2022-08-19T06:02:33;96243.63;;;18.02;74.03
64758;BME280;51193;45.588;5.376;2022-08-19T06:05:00;96243.56;;;18.04;74.14
64758;BME280;51193;45.588;5.376;2022-08-19T06:07:27;96254.81;;;18.07;74.01
64758;BME280;51193;45.588;5.376;2022-08-19T06:09:54;96251.56;;;18.02;73.93
64758;BME280;51193;45.588;5.376;2022-08-19T06:12:20;96251.69;;;18.01;74.36
64758;BME280;51193;45.588;5.376;2022-08-19T06:14:51;96251.56;;;18.02;74.20
64758;BME280;51193;45.588;5.376;2022-08-19T06:17:19;96262.28;;;18.01;74.31
64758;BME280;51193;45.588;5.376;2022-08-19T06:19:45;96261.41;;;18.00;74.46
64758;BME280;51193;45.588;5.376;2022-08-19T06:22:10;96267.38;;;18.04;74.24
64758;BME280;51193;45.588;5.376;2022-08-19T06:24:37;96269.09;;;18.05;74.08
64758;BME280;51193;45.588;5.376;2022-08-19T06:27:03;96271.59;;;18.06;74.28
64758;BME280;51193;45.588;5.376;2022-08-19T06:29:30;96270.59;;;18.09;74.27
64758;BME280;51193;45.588;5.376;2022-08-19T06:31:58;96272.28;;;18.10;74.44
64758;BME280;51193;45.588;5.376;2022-08-19T06:34:25;96272.94;;;18.14;74.24
64758;BME280;51193;45.588;5.376;2022-08-19T06:36:53;96276.34;;;18.16;74.16
64758;BME280;51193;45.588;5.376;2022-08-19T06:39:25;96279.28;;;18.11;74.18
64758;BME280;51193;45.588;5.376;2022-08-19T06:41:53;96276.81;;;18.08;74.59
64758;BME280;51193;45.588;5.376;2022-08-19T06:44:22;96278.03;;;18.17;74.34
64758;BME280;51193;45.588;5.376;2022-08-19T06:46:48;96273.41;;;18.20;74.17
64758;BME280;51193;45.588;5.376;2022-08-19T06:49:14;96281.81;;;18.27;74.49
64758;BME280;51193;45.588;5.376;2022-08-19T06:51:41;96287.00;;;18.28;74.34
64758;BME280;51193;45.588;5.376;2022-08-19T06:54:07;96301.19;;;18.27;74.45
64758;BME280;51193;45.588;5.376;2022-08-19T06:56:33;96298.81;;;18.23;74.62
64758;BME280;51193;45.588;5.376;2022-08-19T06:59:07;96300.72;;;18.21;74.28
64758;BME280;51193;45.588;5.376;2022-08-19T07:01:37;96299.03;;;18.20;74.33
64758;BME280;51193;45.588;5.376;2022-08-19T07:04:07;96299.78;;;18.22;74.46
64758;BME280;51193;45.588;5.376;2022-08-19T07:06:34;96297.88;;;18.24;74.23
64758;BME280;51193;45.588;5.376;2022-08-19T07:08:59;96303.34;;;18.21;74.44
64758;BME280;51193;45.588;5.376;2022-08-19T07:11:25;96307.81;;;18.20;74.65
64758;BME280;51193;45.588;5.376;2022-08-19T07:13:50;96312.94;;;18.23;74.62
64758;BME280;51193;45.588;5.376;2022-08-19T07:16:17;96320.19;;;18.20;74.59
64758;BME280;51193;45.588;5.376;2022-08-19T07:18:46;96321.13;;;18.19;74.55
64758;BME280;51193;45.588;5.376;2022-08-19T07:21:17;96320.94;;;18.22;74.74
64758;BME280;51193;45.588;5.376;2022-08-19T07:23:43;96328.69;;;18.25;74.69
64758;BME280;51193;45.588;5.376;2022-08-19T07:26:18;96328.69;;;18.25;74.58
64758;BME280;51193;45.588;5.376;2022-08-19T07:28:46;96333.34;;;18.21;74.61
64758;BME280;51193;45.588;5.376;2022-08-19T07:31:20;96339.47;;;18.22;74.81
64758;BME280;51193;45.588;5.376;2022-08-19T07:33:47;96337.59;;;18.24;74.88
64758;BME280;51193;45.588;5.376;2022-08-19T07:36:15;96342.13;;;18.22;74.93
64758;BME280;51193;45.588;5.376;2022-08-19T07:38:44;96339.09;;;18.14;74.99
64758;BME280;51193;45.588;5.376;2022-08-19T07:41:14;96337.97;;;18.18;75.14
64758;BME280;51193;45.588;5.376;2022-08-19T07:43:41;96342.41;;;18.17;75.12
64758;BME280;51193;45.588;5.376;2022-08-19T07:46:10;96339.66;;;18.19;75.29
64758;BME280;51193;45.588;5.376;2022-08-19T07:48:36;96337.88;;;18.19;75.25
64758;BME280;51193;45.588;5.376;2022-08-19T07:51:05;96340.69;;;18.16;74.92
64758;BME280;51193;45.588;5.376;2022-08-19T07:53:32;96344.19;;;18.17;75.39
64758;BME280;51193;45.588;5.376;2022-08-19T07:55:59;96345.63;;;18.22;75.35
64758;BME280;51193;45.588;5.376;2022-08-19T07:58:28;96341.84;;;18.26;75.06
64758;BME280;51193;45.588;5.376;2022-08-19T08:00:53;96356.56;;;18.30;75.31
64758;BME280;51193;45.588;5.376;2022-08-19T08:03:20;96360.28;;;18.28;75.27
64758;BME280;51193;45.588;5.376;2022-08-19T08:06:06;96354.97;;;18.28;75.40
64758;BME280;51193;45.588;5.376;2022-08-19T08:08:50;96353.56;;;18.22;75.05
64758;BME280;51193;45.588;5.376;2022-08-19T08:11:34;96362.53;;;18.34;75.20
64758;BME280;51193;45.588;5.376;2022-08-19T08:14:01;96358.47;;;18.43;75.25
64758;BME280;51193;45.588;5.376;2022-08-19T08:16:26;96369.53;;;18.49;74.89
64758;BME280;51193;45.588;5.376;2022-08-19T08:18:55;96365.75;;;18.54;75.14
64758;BME280;51193;45.588;5.376;2022-08-19T08:21:20;96373.81;;;18.52;74.73
64758;BME280;51193;45.588;5.376;2022-08-19T08:23:46;96372.47;;;18.45;75.23
64758;BME280;51193;45.588;5.376;2022-08-19T08:26:11;96380.03;;;18.37;74.95
64758;BME280;51193;45.588;5.376;2022-08-19T08:28:38;96375.88;;;18.33;75.17
64758;BME280;51193;45.588;5.376;2022-08-19T08:31:03;96382.88;;;18.34;75.33
64758;BME280;51193;45.588;5.376;2022-08-19T08:33:29;96382.75;;;18.35;75.31
64758;BME280;51193;45.588;5.376;2022-08-19T08:35:55;96384.56;;;18.35;75.26
64758;BME280;51193;45.588;5.376;2022-08-19T08:38:21;96389.00;;;18.34;75.07
64758;BME280;51193;45.588;5.376;2022-08-19T08:40:49;96389.09;;;18.33;75.24
64758;BME280;51193;45.588;5.376;2022-08-19T08:43:35;96387.22;;;18.35;75.09
64758;BME280;51193;45.588;5.376;2022-08-19T08:48:39;96402.03;;;18.37;75.05
64758;BME280;51193;45.588;5.376;2022-08-19T08:51:15;96398.63;;;18.35;75.19
64758;BME280;51193;45.588;5.376;2022-08-19T08:53:44;96391.47;;;18.37;75.28
64758;BME280;51193;45.588;5.376;2022-08-19T08:56:12;96400.28;;;18.38;75.22
64758;BME280;51193;45.588;5.376;2022-08-19T09:01:35;96408.84;;;18.41;75.17
64758;BME280;51193;45.588;5.376;2022-08-19T09:04:04;96408.84;;;18.41;75.09
64758;BME280;51193;45.588;5.376;2022-08-19T09:09:29;96411.72;;;18.53;75.47
64758;BME280;51193;45.588;5.376;2022-08-19T09:12:07;96412.00;;;18.62;75.15
64758;BME280;51193;45.588;5.376;2022-08-19T09:14:52;96411.41;;;18.72;75.31
64758;BME280;51193;45.588;5.376;2022-08-19T09:17:22;96414.75;;;18.89;75.08
64758;BME280;51193;45.588;5.376;2022-08-19T09:19:55;96415.09;;;19.12;74.39
64758;BME280;51193;45.588;5.376;2022-08-19T09:22:21;96413.84;;;19.18;74.44
64758;BME280;51193;45.588;5.376;2022-08-19T09:24:49;96413.06;;;19.30;74.16
64758;BME280;51193;45.588;5.376;2022-08-19T09:27:15;96415.41;;;19.35;73.69
64758;BME280;51193;45.588;5.376;2022-08-19T09:29:41;96423.16;;;19.38;73.46
64758;BME280;51193;45.588;5.376;2022-08-19T09:32:07;96413.69;;;19.34;73.83
64758;BME280;51193;45.588;5.376;2022-08-19T09:34:32;96419.97;;;19.33;73.46
64758;BME280;51193;45.588;5.376;2022-08-19T09:36:58;96412.00;;;19.33;73.38
64758;BME280;51193;45.588;5.376;2022-08-19T09:39:25;96418.81;;;19.37;73.68
64758;BME280;51193;45.588;5.376;2022-08-19T09:41:51;96424.38;;;19.46;73.64
64758;BME280;51193;45.588;5.376;2022-08-19T09:44:18;96429.38;;;19.51;72.90
64758;BME280;51193;45.588;5.376;2022-08-19T09:46:45;96421.59;;;19.48;72.62
64758;BME280;51193;45.588;5.376;2022-08-19T09:49:15;96426.91;;;19.48;73.29
64758;BME280;51193;45.588;5.376;2022-08-19T09:51:42;96426.31;;;19.57;72.87
64758;BME280;51193;45.588;5.376;2022-08-19T09:54:07;96429.31;;;19.65;72.64
64758;BME280;51193;45.588;5.376;2022-08-19T09:56:33;96422.81;;;19.71;72.42
64758;BME280;51193;45.588;5.376;2022-08-19T09:58:59;96420.69;;;19.76;72.48
64758;BME280;51193;45.588;5.376;2022-08-19T10:01:27;96423.91;;;19.81;71.88
64758;BME280;51193;45.588;5.376;2022-08-19T10:03:56;96429.97;;;19.96;71.53
64758;BME280;51193;45.588;5.376;2022-08-19T10:06:24;96421.59;;;20.15;71.75
64758;BME280;51193;45.588;5.376;2022-08-19T10:08:50;96419.09;;;20.39;71.85
64758;BME280;51193;45.588;5.376;2022-08-19T10:11:17;96421.41;;;20.57;71.27
64758;BME280;51193;45.588;5.376;2022-08-19T10:13:44;96420.47;;;20.70;70.50
64758;BME280;51193;45.588;5.376;2022-08-19T10:16:16;96417.06;;;20.94;69.47
64758;BME280;51193;45.588;5.376;2022-08-19T10:18:43;96414.44;;;21.18;69.32
64758;BME280;51193;45.588;5.376;2022-08-19T10:21:23;96422.88;;;21.49;68.36
64758;BME280;51193;45.588;5.376;2022-08-19T10:23:50;96423.78;;;21.85;67.10
64758;BME280;51193;45.588;5.376;2022-08-19T10:26:22;96418.72;;;21.93;66.21
64758;BME280;51193;45.588;5.376;2022-08-19T10:28:48;96422.97;;;21.96;66.18
64758;BME280;51193;45.588;5.376;2022-08-19T10:31:18;96425.53;;;21.97;66.40
64758;BME280;51193;45.588;5.376;2022-08-19T10:33:46;96431.06;;;21.94;65.85
64758;BME280;51193;45.588;5.376;2022-08-19T10:36:18;96437.66;;;21.77;65.28
64758;BME280;51193;45.588;5.376;2022-08-19T10:38:47;96438.63;;;21.52;65.72
64758;BME280;51193;45.588;5.376;2022-08-19T10:41:18;96443.69;;;21.18;65.97
64758;BME280;51193;45.588;5.376;2022-08-19T10:43:45;96446.91;;;20.98;66.79
64758;BME280;51193;45.588;5.376;2022-08-19T10:46:15;96451.59;;;20.81;67.31
64758;BME280;51193;45.588;5.376;2022-08-19T10:48:41;96448.63;;;20.73;67.00
64758;BME280;51193;45.588;5.376;2022-08-19T10:51:08;96452.69;;;20.66;67.11
64758;BME280;51193;45.588;5.376;2022-08-19T10:53:52;96455.44;;;20.52;67.64
64758;BME280;51193;45.588;5.376;2022-08-19T10:56:18;96451.91;;;20.38;67.80
64758;BME280;51193;45.588;5.376;2022-08-19T10:59:03;96454.56;;;20.38;68.82
64758;BME280;51193;45.588;5.376;2022-08-19T11:01:29;96451.47;;;20.44;68.68
64758;BME280;51193;45.588;5.376;2022-08-19T11:03:56;96450.31;;;20.48;69.34
64758;BME280;51193;45.588;5.376;2022-08-19T11:06:24;96450.72;;;20.42;69.26
64758;BME280;51193;45.588;5.376;2022-08-19T11:08:53;96451.16;;;20.36;69.55
64758;BME280;51193;45.588;5.376;2022-08-19T11:11:20;96459.34;;;20.33;69.65
64758;BME280;51193;45.588;5.376;2022-08-19T11:13:46;96458.69;;;20.29;69.91
64758;BME280;51193;45.588;5.376;2022-08-19T11:16:17;96455.28;;;20.27;70.43
64758;BME280;51193;45.588;5.376;2022-08-19T11:18:45;96460.69;;;20.26;70.57
64758;BME280;51193;45.588;5.376;2022-08-19T11:21:20;96459.44;;;20.32;70.78
64758;BME280;51193;45.588;5.376;2022-08-19T11:23:48;96465.81;;;20.29;70.49
64758;BME280;51193;45.588;5.376;2022-08-19T11:26:15;96465.47;;;20.21;70.82
64758;BME280;51193;45.588;5.376;2022-08-19T11:28:41;96468.00;;;20.09;70.27
64758;BME280;51193;45.588;5.376;2022-08-19T11:31:17;96478.28;;;20.01;70.53
64758;BME280;51193;45.588;5.376;2022-08-19T11:33:44;96477.53;;;19.99;69.92
64758;BME280;51193;45.588;5.376;2022-08-19T11:36:10;96489.63;;;20.03;70.41
64758;BME280;51193;45.588;5.376;2022-08-19T11:38:36;96490.59;;;20.02;70.16
64758;BME280;51193;45.588;5.376;2022-08-19T11:41:05;96482.63;;;20.02;69.47
64758;BME280;51193;45.588;5.376;2022-08-19T11:43:31;96478.41;;;20.00;69.63
64758;BME280;51193;45.588;5.376;2022-08-19T11:45:57;96486.63;;;19.95;69.40
64758;BME280;51193;45.588;5.376;2022-08-19T11:48:24;96479.31;;;19.86;69.62
64758;BME280;51193;45.588;5.376;2022-08-19T11:50:50;96485.41;;;19.74;69.83
64758;BME280;51193;45.588;5.376;2022-08-19T11:53:19;96483.81;;;19.71;70.22
64758;BME280;51193;45.588;5.376;2022-08-19T11:55:46;96487.84;;;19.77;69.70
64758;BME280;51193;45.588;5.376;2022-08-19T11:58:13;96490.09;;;19.83;69.68
64758;BME280;51193;45.588;5.376;2022-08-19T12:00:40;96486.28;;;19.87;69.35
64758;BME280;51193;45.588;5.376;2022-08-19T12:03:06;96492.56;;;19.86;69.13
64758;BME280;51193;45.588;5.376;2022-08-19T12:05:32;96501.47;;;19.85;68.86
64758;BME280;51193;45.588;5.376;2022-08-19T12:07:57;96500.28;;;19.76;68.89
64758;BME280;51193;45.588;5.376;2022-08-19T12:10:23;96491.78;;;19.71;69.39
64758;BME280;51193;45.588;5.376;2022-08-19T12:12:49;96498.00;;;19.70;69.37
64758;BME280;51193;45.588;5.376;2022-08-19T12:15:14;96497.63;;;19.62;69.36
64758;BME280;51193;45.588;5.376;2022-08-19T12:17:43;96502.66;;;19.52;69.74
64758;BME280;51193;45.588;5.376;2022-08-19T12:20:10;96497.50;;;19.50;69.52
64758;BME280;51193;45.588;5.376;2022-08-19T12:22:37;96496.44;;;19.53;69.64
64758;BME280;51193;45.588;5.376;2022-08-19T12:25:04;96490.28;;;19.53;69.52
64758;BME280;51193;45.588;5.376;2022-08-19T12:27:30;96488.47;;;19.53;70.03
64758;BME280;51193;45.588;5.376;2022-08-19T12:29:55;96489.53;;;19.50;70.19
64758;BME280;51193;45.588;5.376;2022-08-19T12:32:21;96495.69;;;19.51;70.06
64758;BME280;51193;45.588;5.376;2022-08-19T12:34:46;96493.78;;;19.53;69.70
64758;BME280;51193;45.588;5.376;2022-08-19T12:37:12;96501.72;;;19.53;69.88
64758;BME280;51193;45.588;5.376;2022-08-19T12:39:40;96513.50;;;19.49;70.17
64758;BME280;51193;45.588;5.376;2022-08-19T12:42:08;96504.19;;;19.42;70.32
64758;BME280;51193;45.588;5.376;2022-08-19T12:44:35;96504.41;;;19.39;70.29
64758;BME280;51193;45.588;5.376;2022-08-19T12:47:00;96501.41;;;19.30;70.49
64758;BME280;51193;45.588;5.376;2022-08-19T12:49:28;96503.97;;;19.32;70.84
64758;BME280;51193;45.588;5.376;2022-08-19T12:51:57;96504.31;;;19.40;70.30
64758;BME280;51193;45.588;5.376;2022-08-19T12:54:23;96506.47;;;19.48;70.90
64758;BME280;51193;45.588;5.376;2022-08-19T12:56:48;96499.75;;;19.57;70.85
64758;BME280;51193;45.588;5.376;2022-08-19T12:59:14;96500.94;;;19.65;70.15
64758;BME280;51193;45.588;5.376;2022-08-19T13:01:43;96494.44;;;19.71;70.67
64758;BME280;51193;45.588;5.376;2022-08-19T13:04:09;96497.78;;;19.87;70.78
64758;BME280;51193;45.588;5.376;2022-08-19T13:06:35;96498.34;;;20.05;69.94
64758;BME280;51193;45.588;5.376;2022-08-19T13:09:01;96490.88;;;20.25;69.68
64758;BME280;51193;45.588;5.376;2022-08-19T13:11:27;96490.97;;;20.36;69.00
64758;BME280;51193;45.588;5.376;2022-08-19T13:13:58;96485.38;;;20.41;68.41
64758;BME280;51193;45.588;5.376;2022-08-19T13:16:24;96494.44;;;20.51;68.45